Time;durP1;ratioP1;P1;durP2;ratioP2;P2;SDS_P1;SDS_P2;PMS_P1;PMS_P2;Temp;Humidity;BMP_temperature;BMP_pressure;BME280_temperature;BME280_humidity;BME280_pressure;Samples;Min_cycle;Max_cycle;Signal;HPM_P1;HPM_P2
2023/07/31 00:00:31;;;;;;;38.95;11.32;;;;;;;17.07;100.00;100783.69;5093176;28;20035;-52
2023/07/31 00:02:56;;;;;;;34.78;10.90;;;;;;;16.86;100.00;100751.25;5075226;28;20043;-55
2023/07/31 00:05:22;;;;;;;38.40;11.20;;;;;;;16.63;100.00;100720.72;5092953;28;20043;-52
2023/07/31 00:07:47;;;;;;;39.88;10.68;;;;;;;16.76;100.00;100742.97;5075135;28;20028;-52
2023/07/31 00:10:13;;;;;;;38.20;10.45;;;;;;;16.69;100.00;100725.69;5092846;28;20032;-52
2023/07/31 00:12:39;;;;;;;41.97;11.95;;;;;;;16.80;100.00;100756.94;5092312;28;20059;-51
2023/07/31 00:15:06;;;;;;;31.40;10.35;;;;;;;17.05;100.00;100810.34;5092846;28;20035;-55
2023/07/31 00:17:32;;;;;;;36.15;10.90;;;;;;;17.04;100.00;100794.50;5074757;28;20056;-53
2023/07/31 00:19:57;;;;;;;33.20;10.85;;;;;;;17.03;100.00;100793.63;5092950;28;20506;-53
2023/07/31 00:22:22;;;;;;;38.72;11.38;;;;;;;16.98;100.00;100782.44;5074494;28;20039;-50
2023/07/31 00:24:48;;;;;;;40.80;11.60;;;;;;;17.02;100.00;100785.72;5092686;28;20032;-55
2023/07/31 00:27:13;;;;;;;33.53;10.68;;;;;;;17.02;100.00;100788.41;5074102;28;20040;-52
2023/07/31 00:29:38;;;;;;;32.95;10.70;;;;;;;16.99;100.00;100777.97;5074334;28;20465;-55
2023/07/31 00:32:04;;;;;;;41.30;11.85;;;;;;;16.59;100.00;100718.31;5091975;28;20036;-54
2023/07/31 00:34:29;;;;;;;38.20;11.43;;;;;;;16.99;100.00;100772.66;5092682;28;20036;-55
2023/07/31 00:36:55;;;;;;;39.20;11.40;;;;;;;16.90;100.00;100768.72;5092230;28;20036;-52
2023/07/31 00:39:20;;;;;;;35.70;9.35;;;;;;;16.96;100.00;100781.63;5092407;28;20040;-56
2023/07/31 00:41:45;;;;;;;34.05;10.60;;;;;;;16.97;100.00;100790.47;5074353;28;20040;-51
2023/07/31 00:44:10;;;;;;;26.67;9.55;;;;;;;16.94;100.00;100786.19;5092259;28;20123;-54
2023/07/31 00:46:36;;;;;;;36.28;9.95;;;;;;;16.94;100.00;100783.53;5091345;28;20390;-52
2023/07/31 00:49:02;;;;;;;39.60;11.52;;;;;;;16.92;100.00;100800.53;5074049;28;20518;-52
2023/07/31 00:51:27;;;;;;;33.00;10.20;;;;;;;16.93;100.00;100797.78;5092333;28;20059;-48
2023/07/31 00:53:54;;;;;;;34.45;11.00;;;;;;;16.87;100.00;100772.41;5092512;28;20063;-51
2023/07/31 00:56:19;;;;;;;37.15;10.52;;;;;;;16.87;100.00;100774.22;5092164;28;20036;-51
2023/07/31 00:58:44;;;;;;;38.80;11.05;;;;;;;16.47;100.00;100701.25;5092398;28;20038;-53
2023/07/31 01:01:10;;;;;;;41.45;12.13;;;;;;;16.87;100.00;100779.53;5092112;28;20028;-48
2023/07/31 01:03:35;;;;;;;35.40;10.95;;;;;;;16.56;100.00;100721.16;5091667;28;20093;-54
2023/07/31 01:06:25;;;;;;;42.35;11.13;;;;;;;16.88;100.00;100795.41;5092115;28;20475;-50
2023/07/31 01:09:00;;;;;;;39.53;12.00;;;;;;;16.87;100.00;100790.16;5091844;28;20468;-48
2023/07/31 01:11:28;;;;;;;30.45;10.35;;;;;;;16.83;100.00;100783.34;5091760;28;20080;-50
2023/07/31 01:13:55;;;;;;;39.25;11.15;;;;;;;16.74;100.00;100768.78;5092184;28;20028;-49
2023/07/31 01:16:20;;;;;;;29.63;10.85;;;;;;;16.74;100.00;100767.91;5073995;28;20142;-50
2023/07/31 01:18:45;;;;;;;33.33;10.48;;;;;;;16.41;100.00;100722.88;5073541;28;20052;-49
2023/07/31 01:21:40;;;;;;;40.28;11.45;;;;;;;16.65;100.00;100771.97;5090891;28;20082;-49
2023/07/31 01:24:30;;;;;;;33.50;10.90;;;;;;;16.30;100.00;100710.22;5074048;28;20063;-49
2023/07/31 01:27:05;;;;;;;35.08;11.27;;;;;;;16.52;100.00;100746.19;5073755;28;20472;-54
2023/07/31 01:29:43;;;;;;;30.75;10.30;;;;;;;16.30;100.00;100704.91;5073839;28;20032;-51
2023/07/31 01:32:09;;;;;;;29.50;10.75;;;;;;;16.31;100.00;100695.16;5073946;28;20020;-54
2023/07/31 01:34:35;;;;;;;32.35;11.38;;;;;;;16.35;100.00;100707.28;5074332;28;20482;-54
2023/07/31 01:37:00;;;;;;;34.95;10.48;;;;;;;16.58;100.00;100749.34;5091195;28;20031;-50
2023/07/31 01:39:26;;;;;;;37.17;10.77;;;;;;;16.63;100.00;100755.28;5091904;28;20456;-54
2023/07/31 01:41:51;;;;;;;38.80;10.43;;;;;;;16.70;100.00;100756.59;5091865;28;20036;-51
2023/07/31 01:44:16;;;;;;;37.30;10.68;;;;;;;16.74;100.00;100755.50;5095755;28;20040;-52
2023/07/31 01:46:42;;;;;;;32.92;10.55;;;;;;;16.71;100.00;100737.06;5095604;28;20064;-54
2023/07/31 01:49:08;;;;;;;30.70;10.77;;;;;;;16.39;100.00;100678.75;5095956;28;20032;-51
2023/07/31 01:51:34;;;;;;;31.02;9.73;;;;;;;16.71;100.00;100736.19;5095814;28;20047;-52
2023/07/31 01:54:00;;;;;;;42.03;11.88;;;;;;;16.33;100.00;100664.91;5094978;28;20032;-54
2023/07/31 01:56:25;;;;;;;27.98;10.48;;;;;;;16.70;100.00;100716.75;5095452;28;20515;-50
2023/07/31 01:58:50;;;;;;;32.55;9.65;;;;;;;16.75;100.00;100721.78;5095459;28;20043;-55
2023/07/31 02:01:16;;;;;;;31.95;9.90;;;;;;;16.62;100.00;100688.91;5095363;28;20032;-55
2023/07/31 02:03:42;;;;;;;29.58;10.10;;;;;;;16.67;100.00;100692.13;5095685;28;20040;-49
2023/07/31 02:06:07;;;;;;;28.92;9.75;;;;;;;16.45;100.00;100638.53;5095370;28;20111;-55
2023/07/31 02:08:32;;;;;;;27.67;9.27;;;;;;;16.82;100.00;100697.41;5095391;28;20060;-48
2023/07/31 02:10:58;;;;;;;29.98;9.43;;;;;;;16.71;100.00;100683.03;5094789;28;20399;-54
2023/07/31 02:13:23;;;;;;;29.05;9.68;;;;;;;16.47;100.00;100637.50;5076296;28;20036;-55
2023/07/31 02:15:48;;;;;;;32.55;9.57;;;;;;;16.84;100.00;100697.31;5095209;28;20467;-48
2023/07/31 02:18:14;;;;;;;32.45;10.07;;;;;;;16.73;100.00;100679.34;5112149;28;20481;-51
2023/07/31 02:20:39;;;;;;;38.65;10.82;;;;;;;16.32;100.00;100606.53;5115701;28;20032;-55
2023/07/31 02:23:04;;;;;;;29.63;9.27;;;;;;;16.84;100.00;100692.84;5115496;28;20075;-52
2023/07/31 02:25:30;;;;;;;36.60;10.77;;;;;;;16.81;100.00;100687.69;5115388;28;20100;-49
2023/07/31 02:27:55;;;;;;;33.95;10.45;;;;;;;16.88;100.00;100696.16;5114988;28;20043;-50
2023/07/31 02:30:21;;;;;;;31.95;10.27;;;;;;;16.57;100.00;100641.38;5097278;28;20044;-49
2023/07/31 02:32:46;;;;;;;33.45;12.30;;;;;;;16.41;100.00;100613.97;5114974;28;20498;-54
2023/07/31 02:35:15;;;;;;;34.55;10.90;;;;;;;16.84;100.00;100687.53;5109197;28;20431;-54
2023/07/31 02:37:40;;;;;;;28.48;10.52;;;;;;;16.49;100.00;100624.16;5095020;28;20036;-55
2023/07/31 02:40:06;;;;;;;30.45;10.40;;;;;;;16.78;100.00;100671.94;5095030;28;20403;-57
2023/07/31 02:42:31;;;;;;;30.08;9.73;;;;;;;16.81;100.00;100673.59;5094655;28;20036;-56
2023/07/31 02:44:57;;;;;;;29.58;10.10;;;;;;;16.82;100.00;100675.28;5092971;28;20115;-48
2023/07/31 02:47:22;;;;;;;24.40;9.20;;;;;;;16.43;100.00;100608.56;5076929;28;20122;-50
2023/07/31 02:49:48;;;;;;;28.88;9.20;;;;;;;16.81;100.00;100665.59;5094432;28;20084;-50
2023/07/31 02:52:13;;;;;;;33.88;9.40;;;;;;;16.52;100.00;100623.97;5093904;28;20039;-51
2023/07/31 02:54:38;;;;;;;25.63;8.60;;;;;;;16.75;100.00;100672.13;5093834;28;20055;-49
2023/07/31 02:57:04;;;;;;;27.17;9.00;;;;;;;16.63;100.00;100618.88;5076172;28;20032;-53
2023/07/31 02:59:29;;;;;;;25.25;8.77;;;;;;;16.90;100.00;100654.38;5076019;28;20112;-50
2023/07/31 03:01:55;;;;;;;35.67;10.02;;;;;;;16.52;100.00;100589.41;5094125;28;20039;-49
2023/07/31 03:04:20;;;;;;;21.77;8.63;;;;;;;16.85;100.00;100653.81;5094088;28;20032;-52
2023/07/31 03:06:45;;;;;;;30.77;9.02;;;;;;;16.69;100.00;100611.41;5094027;28;20085;-52
2023/07/31 03:09:11;;;;;;;29.05;8.90;;;;;;;16.75;100.00;100637.56;5093871;28;20230;-51
2023/07/31 03:11:36;;;;;;;30.38;9.07;;;;;;;16.77;100.00;100630.38;5076081;28;20028;-49
2023/07/31 03:14:01;;;;;;;29.15;9.20;;;;;;;16.81;100.00;100647.84;5094083;28;20067;-55
2023/07/31 03:16:27;;;;;;;27.88;9.23;;;;;;;16.80;100.00;100638.16;5094022;28;20050;-54
2023/07/31 03:18:52;;;;;;;31.77;9.70;;;;;;;16.85;100.00;100643.19;5089092;28;20055;-60
2023/07/31 03:21:17;;;;;;;25.55;8.95;;;;;;;16.50;100.00;100575.34;5073736;28;20111;-50
2023/07/31 03:23:43;;;;;;;24.08;9.60;;;;;;;16.87;100.00;100626.19;5072687;28;20132;-54
2023/07/31 03:26:08;;;;;;;26.38;8.90;;;;;;;16.77;100.00;100610.91;5071501;28;20120;-53
2023/07/31 03:28:34;;;;;;;25.55;8.85;;;;;;;16.86;100.00;100632.47;5073654;28;20524;-51
2023/07/31 03:30:59;;;;;;;28.55;8.35;;;;;;;16.81;100.00;100620.41;5073512;28;20032;-49
2023/07/31 03:33:25;;;;;;;23.98;9.05;;;;;;;16.88;100.00;100637.69;5074116;28;20037;-49
2023/07/31 03:35:50;;;;;;;23.88;8.18;;;;;;;16.84;100.00;100636.19;5073724;28;20110;-50
2023/07/31 03:38:16;;;;;;;27.42;9.45;;;;;;;16.71;100.00;100612.16;5073444;28;20036;-49
2023/07/31 03:40:41;;;;;;;29.90;8.95;;;;;;;16.83;100.00;100623.81;5071889;28;20032;-50
2023/07/31 03:43:06;;;;;;;28.42;7.82;;;;;;;16.74;100.00;100606.63;5073383;28;20037;-56
2023/07/31 03:45:32;;;;;;;28.38;9.10;;;;;;;16.83;100.00;100614.06;5072132;28;20044;-54
2023/07/31 03:47:57;;;;;;;27.25;8.20;;;;;;;16.84;100.00;100615.75;5072100;28;20047;-51
2023/07/31 03:50:24;;;;;;;26.35;9.38;;;;;;;16.51;100.00;100550.50;5076855;28;20063;-51
2023/07/31 03:52:50;;;;;;;30.50;9.15;;;;;;;16.88;100.00;100619.94;5073217;28;20028;-49
2023/07/31 03:55:15;;;;;;;22.08;6.85;;;;;;;16.86;100.00;100613.88;5071822;28;20046;-55
2023/07/31 03:57:40;;;;;;;21.25;7.70;;;;;;;16.41;100.00;100538.72;5072813;28;20041;-49
2023/07/31 04:00:06;;;;;;;18.88;6.85;;;;;;;16.77;100.00;100594.97;5072923;28;20037;-48
2023/07/31 04:02:32;;;;;;;17.60;6.13;;;;;;;16.70;100.00;100596.28;5073132;28;20469;-48
2023/07/31 04:04:57;;;;;;;15.88;5.35;;;;;;;16.23;100.00;100520.28;5072851;28;20049;-48
2023/07/31 04:07:22;;;;;;;19.83;5.70;;;;;;;16.26;100.00;100530.72;5053386;28;20032;-54
2023/07/31 04:09:48;;;;;;;14.85;5.50;;;;;;;16.63;100.00;100587.84;5071354;28;20037;-49
2023/07/31 04:12:13;;;;;;;12.23;5.43;;;;;;;16.21;100.00;100526.66;5072705;28;20073;-51
2023/07/31 04:14:38;;;;;;;9.00;3.97;;;;;;;16.59;100.00;100586.31;5071351;28;20033;-49
2023/07/31 04:17:04;;;;;;;9.40;4.47;;;;;;;16.54;100.00;100577.78;5073162;28;20119;-49
2023/07/31 04:19:29;;;;;;;14.98;5.47;;;;;;;16.58;100.00;100573.13;5092842;28;20375;-49
2023/07/31 04:21:54;;;;;;;13.27;4.97;;;;;;;16.38;100.00;100547.72;5093185;28;20535;-53
2023/07/31 04:24:24;;;;;;;7.78;3.67;;;;;;;16.16;100.00;100507.50;5091831;28;20128;-54
2023/07/31 04:26:50;;;;;;;8.70;3.58;;;;;;;16.20;100.00;100515.16;5092393;28;20053;-50
2023/07/31 04:29:15;;;;;;;11.30;3.47;;;;;;;16.48;100.00;100558.66;5092807;28;20028;-55
2023/07/31 04:31:41;;;;;;;8.73;3.58;;;;;;;16.18;100.00;100508.25;5093067;28;20078;-56
2023/07/31 04:34:06;;;;;;;7.35;2.70;;;;;;;16.12;100.00;100501.50;5092571;28;20044;-52
2023/07/31 04:36:33;;;;;;;12.23;3.03;;;;;;;16.42;100.00;100548.41;5074905;28;20028;-51
2023/07/31 04:38:58;;;;;;;6.50;3.13;;;;;;;16.43;100.00;100545.66;5074527;28;20039;-58
2023/07/31 04:41:24;;;;;;;6.80;2.97;;;;;;;16.25;100.00;100530.84;5092041;28;20035;-56
2023/07/31 04:43:49;;;;;;;5.70;2.70;;;;;;;16.39;100.00;100561.88;5092236;28;20467;-53
2023/07/31 04:46:15;;;;;;;5.95;2.75;;;;;;;16.22;100.00;100526.56;5091233;28;20040;-54
2023/07/31 04:48:40;;;;;;;8.95;3.40;;;;;;;16.51;100.00;100569.97;5092542;28;20036;-58
2023/07/31 04:51:05;;;;;;;5.97;3.35;;;;;;;16.46;100.00;100564.03;5074546;28;20063;-56
2023/07/31 04:53:31;;;;;;;4.90;3.13;;;;;;;16.00;100.00;100490.75;5092401;28;20101;-51
2023/07/31 04:55:56;;;;;;;7.43;3.45;;;;;;;16.26;100.00;100551.13;5091719;28;20032;-51
2023/07/31 04:58:21;;;;;;;6.57;3.58;;;;;;;16.24;100.00;100555.69;5074504;28;20047;-55
2023/07/31 05:00:46;;;;;;;9.13;4.00;;;;;;;16.24;100.00;100561.84;5092545;28;20040;-58
2023/07/31 05:03:12;;;;;;;7.53;4.25;;;;;;;16.05;100.00;100532.00;5092440;28;20040;-58
2023/07/31 05:05:37;;;;;;;9.40;4.85;;;;;;;16.20;100.00;100554.16;5092389;28;20032;-55
2023/07/31 05:08:03;;;;;;;10.43;4.55;;;;;;;16.18;100.00;100553.38;5092377;28;20051;-56
2023/07/31 05:10:28;;;;;;;9.27;4.78;;;;;;;16.16;100.00;100544.66;5091840;28;20540;-51
2023/07/31 05:12:53;;;;;;;14.45;6.13;;;;;;;16.10;100.00;100551.19;5092321;28;20059;-52
2023/07/31 05:15:19;;;;;;;9.93;5.57;;;;;;;16.11;100.00;100541.44;5091571;28;20043;-58
2023/07/31 05:17:44;;;;;;;10.85;5.50;;;;;;;15.73;100.00;100482.66;5091470;28;20072;-52
2023/07/31 05:20:10;;;;;;;9.77;5.70;;;;;;;16.14;100.00;100546.56;5092078;28;20074;-54
2023/07/31 05:22:35;;;;;;;7.32;4.72;;;;;;;15.62;100.00;100447.94;5092317;28;20028;-55
2023/07/31 05:25:01;;;;;;;6.72;4.72;;;;;;;16.17;100.00;100535.78;5092012;28;20032;-56
2023/07/31 05:27:26;;;;;;;15.15;5.63;;;;;;;16.19;100.00;100534.72;5092208;28;20048;-56
2023/07/31 05:29:51;;;;;;;8.93;4.95;;;;;;;16.17;100.00;100535.78;5103223;28;20044;-55
2023/07/31 05:32:17;;;;;;;6.55;4.53;;;;;;;16.15;100.00;100522.56;5112258;28;20091;-58
2023/07/31 05:34:42;;;;;;;10.25;5.28;;;;;;;16.18;100.00;100521.53;5112327;28;20059;-57
2023/07/31 05:37:07;;;;;;;8.48;4.60;;;;;;;16.17;100.00;100523.31;5112143;28;20086;-54
2023/07/31 05:39:33;;;;;;;7.05;4.55;;;;;;;16.12;100.00;100506.81;5112378;28;20047;-57
2023/07/31 05:41:58;;;;;;;8.93;4.57;;;;;;;16.07;100.00;100500.09;5112107;28;20042;-52
2023/07/31 05:44:23;;;;;;;6.43;4.10;;;;;;;16.17;100.00;100506.56;5093822;28;20046;-54
2023/07/31 05:46:49;;;;;;;7.07;4.25;;;;;;;16.20;100.00;100509.84;5093200;28;20036;-55
2023/07/31 05:49:14;;;;;;;7.47;3.72;;;;;;;15.83;100.00;100440.50;5092067;28;20032;-57
2023/07/31 05:51:39;;;;;;;5.45;3.67;;;;;;;15.86;100.00;100450.94;5091881;28;20040;-55
2023/07/31 05:54:04;;;;;;;7.45;3.70;;;;;;;15.90;100.00;100439.19;5091791;28;20048;-56
2023/07/31 05:56:31;;;;;;;5.80;2.92;;;;;;;15.92;100.00;100437.28;5091884;28;20040;-55
2023/07/31 05:58:57;;;;;;;6.57;3.17;;;;;;;16.02;100.00;100444.63;5091201;28;20032;-55
2023/07/31 06:01:22;;;;;;;8.50;2.90;;;;;;;15.71;100.00;100395.19;5092027;28;20097;-57
2023/07/31 06:03:48;;;;;;;3.85;2.50;;;;;;;16.37;100.00;100511.50;5072831;28;20040;-55
2023/07/31 06:06:13;;;;;;;6.60;3.13;;;;;;;16.39;100.00;100495.47;5092073;28;20032;-56
2023/07/31 06:08:39;;;;;;;5.43;2.33;;;;;;;16.01;100.00;100434.94;5091811;28;20029;-58
2023/07/31 06:11:05;;;;;;;4.63;2.20;;;;;;;16.15;100.00;100455.31;5091853;28;20068;-53
2023/07/31 06:13:31;;;;;;;2.58;1.90;;;;;;;16.36;100.00;100487.69;5073712;28;20449;-53
2023/07/31 06:15:56;;;;;;;2.40;1.98;;;;;;;16.45;100.00;100501.25;5073837;28;20047;-55
2023/07/31 06:18:21;;;;;;;4.65;2.50;;;;;;;16.08;100.00;100430.94;5091643;28;20044;-52
2023/07/31 06:20:47;;;;;;;4.53;2.13;;;;;;;16.50;100.00;100487.69;5090935;28;20080;-56
2023/07/31 06:23:12;;;;;;;2.63;1.65;;;;;;;16.56;100.00;100488.19;5091451;28;20077;-57
2023/07/31 06:25:38;;;;;;;3.30;1.92;;;;;;;16.65;100.00;100487.63;5073575;28;20077;-53
2023/07/31 06:28:03;;;;;;;3.53;1.60;;;;;;;16.64;100.00;100475.25;5091870;28;20032;-55
2023/07/31 06:30:28;;;;;;;5.45;1.42;;;;;;;16.70;100.00;100477.53;5075975;28;20043;-55
2023/07/31 06:32:54;;;;;;;2.10;1.48;;;;;;;16.73;100.00;100487.97;5095036;28;20036;-56
2023/07/31 06:35:19;;;;;;;3.85;1.48;;;;;;;16.76;100.00;100476.28;5095025;28;20036;-56
2023/07/31 06:37:44;;;;;;;3.83;1.38;;;;;;;16.69;100.00;100453.72;5094507;28;20032;-54
2023/07/31 06:40:10;;;;;;;2.63;1.27;;;;;;;16.38;100.00;100398.97;5114643;28;20063;-53
2023/07/31 06:42:36;;;;;;;4.15;1.52;;;;;;;16.40;100.00;100410.38;5115147;28;20126;-54
2023/07/31 06:45:02;;;;;;;3.05;1.70;;;;;;;16.44;100.00;100398.59;5115417;28;20085;-53
2023/07/31 06:47:27;;;;;;;2.97;1.70;;;;;;;16.86;100.00;100470.31;5097099;28;20036;-56
2023/07/31 06:49:53;;;;;;;2.63;1.50;;;;;;;16.79;100.00;100449.53;5114967;28;20093;-57
2023/07/31 06:52:19;;;;;;;1.77;1.00;;;;;;;16.48;100.00;100405.44;5115237;28;20489;-55
2023/07/31 06:54:44;;;;;;;3.08;1.17;;;;;;;16.85;100.00;100459.75;5107798;28;20106;-54
2023/07/31 06:57:09;;;;;;;1.17;1.08;;;;;;;16.86;100.00;100480.94;5076550;28;20064;-54
2023/07/31 06:59:34;;;;;;;1.75;1.10;;;;;;;16.54;100.00;100402.41;5094453;28;20417;-56
2023/07/31 07:02:00;;;;;;;3.10;1.70;;;;;;;16.88;100.00;100455.09;5094204;28;20031;-56
2023/07/31 07:04:26;;;;;;;2.90;0.90;;;;;;;16.90;100.00;100462.97;5076217;28;20547;-58
2023/07/31 07:06:51;;;;;;;3.40;1.23;;;;;;;16.92;100.00;100461.09;5076131;28;20032;-56
2023/07/31 07:09:17;;;;;;;2.90;1.02;;;;;;;16.99;100.00;100457.06;5076098;28;20042;-56
2023/07/31 07:11:43;;;;;;;1.20;1.00;;;;;;;16.96;100.00;100453.78;5093329;28;20036;-59
2023/07/31 07:14:08;;;;;;;2.53;0.90;;;;;;;17.02;100.00;100469.31;5094232;28;20584;-57
2023/07/31 07:16:33;;;;;;;1.15;0.88;;;;;;;16.99;100.00;100461.56;5075939;28;20059;-57
2023/07/31 07:18:59;;;;;;;1.35;0.80;;;;;;;17.02;100.00;100464.84;5094194;28;20048;-61
2023/07/31 07:21:24;;;;;;;1.02;0.80;;;;;;;16.66;100.00;100404.28;5076238;28;20040;-58
2023/07/31 07:23:49;;;;;;;1.48;0.80;;;;;;;16.60;100.00;100401.16;5075902;28;20047;-58
2023/07/31 07:26:15;;;;;;;1.58;1.00;;;;;;;16.61;100.00;100393.09;5093724;28;20089;-59
2023/07/31 07:28:40;;;;;;;1.83;0.95;;;;;;;16.99;100.00;100457.06;5093409;28;20036;-60
2023/07/31 07:31:05;;;;;;;1.15;0.63;;;;;;;17.08;100.00;100456.47;5095913;28;20064;-61
2023/07/31 07:33:31;;;;;;;0.70;0.70;;;;;;;16.77;100.00;100398.28;5093419;28;20035;-60
2023/07/31 07:36:00;;;;;;;1.00;0.80;;;;;;;16.81;100.00;100397.13;5075666;28;20036;-59
2023/07/31 07:38:26;;;;;;;1.95;1.17;;;;;;;16.93;100.00;100393.66;5093433;28;20474;-58
2023/07/31 07:40:53;;;;;;;1.20;0.80;;;;;;;17.29;100.00;100460.38;5102435;28;20059;-59
2023/07/31 07:43:18;;;;;;;1.30;1.00;;;;;;;17.05;100.00;100410.59;5114135;28;20081;-60
2023/07/31 07:45:43;;;;;;;1.05;0.80;;;;;;;17.39;100.00;100453.53;5111688;28;20032;-59
2023/07/31 07:48:09;;;;;;;1.15;0.82;;;;;;;17.04;100.00;100401.81;5093485;28;20036;-60
2023/07/31 07:50:35;;;;;;;1.10;0.93;;;;;;;16.97;100.00;100376.56;5093531;28;20036;-58
2023/07/31 07:53:00;;;;;;;2.97;1.45;;;;;;;17.48;100.00;100456.50;5075277;28;20028;-59
2023/07/31 07:55:25;;;;;;;2.55;1.40;;;;;;;17.52;100.00;100463.31;5092259;28;20032;-59
2023/07/31 07:57:51;;;;;;;2.53;1.30;;;;;;;17.53;100.00;100459.72;5092479;28;20055;-59
2023/07/31 08:00:17;;;;;;;3.22;1.90;;;;;;;17.54;100.00;100446.31;5092697;28;20040;-58
2023/07/31 08:02:43;;;;;;;2.47;1.60;;;;;;;17.53;100.00;100447.25;5091709;28;20035;-58
2023/07/31 08:05:08;;;;;;;3.05;1.90;;;;;;;17.19;100.00;100381.31;5074496;28;20340;-57
2023/07/31 08:07:34;;;;;;;5.45;2.40;;;;;;;17.61;100.00;100449.44;5093148;28;20395;-57
2023/07/31 08:09:59;;;;;;;5.47;2.55;;;;;;;17.56;100.00;100427.59;5074521;28;20028;-59
2023/07/31 08:12:24;;;;;;;8.80;2.95;;;;;;;17.29;100.00;100380.59;5074961;28;20066;-60
2023/07/31 08:14:50;;;;;;;8.98;3.35;;;;;;;17.67;100.00;100433.06;5093213;28;20028;-58
2023/07/31 08:17:15;;;;;;;10.73;3.70;;;;;;;17.68;100.00;100432.09;5092870;28;20044;-59
2023/07/31 08:19:40;;;;;;;16.60;5.53;;;;;;;17.74;100.00;100439.69;5105617;28;20525;-59
2023/07/31 08:22:06;;;;;;;12.45;3.92;;;;;;;17.44;100.00;100382.22;5113278;28;20036;-57
2023/07/31 08:24:31;;;;;;;14.52;4.88;;;;;;;17.35;100.00;100382.84;5113543;28;20054;-60
2023/07/31 08:26:57;;;;;;;18.60;4.93;;;;;;;17.68;100.00;100437.44;5094707;28;20406;-60
2023/07/31 08:29:22;;;;;;;13.18;4.25;;;;;;;17.72;100.00;100447.75;5113218;28;20087;-59
2023/07/31 08:31:48;;;;;;;15.70;4.50;;;;;;;17.44;100.00;100382.22;5112811;28;20039;-57
2023/07/31 08:34:13;;;;;;;23.15;5.30;;;;;;;17.40;100.00;100370.06;5113288;28;20032;-58
2023/07/31 08:36:38;;;;;;;19.90;5.93;;;;;;;17.42;100.00;100365.47;5092972;28;20036;-58
2023/07/31 08:39:03;;;;;;;22.20;5.50;;;;;;;16.40;100.00;100189.06;5092401;28;20032;-58
2023/07/31 08:41:29;;;;;;;18.17;4.97;;;;;;;17.78;100.00;100433.16;5092597;28;20471;-60
2023/07/31 08:43:55;;;;;;;14.20;4.05;;;;;;;17.76;100.00;100421.78;5092800;28;20456;-57
2023/07/31 08:46:21;;;;;;;17.52;4.40;;;;;;;17.78;100.00;100423.38;5092591;28;20032;-57
2023/07/31 08:48:47;;;;;;;13.43;3.58;;;;;;;17.87;100.00;100424.56;5073968;28;20036;-57
2023/07/31 08:51:14;;;;;;;9.40;3.45;;;;;;;17.60;100.00;100379.38;5091326;28;20032;-59
2023/07/31 08:53:39;;;;;;;14.90;4.60;;;;;;;17.55;100.00;100360.22;5073198;28;20040;-55
2023/07/31 08:56:05;;;;;;;15.73;4.82;;;;;;;17.98;100.00;100424.66;5092238;28;21157;-58
2023/07/31 08:58:32;;;;;;;12.48;4.53;;;;;;;17.85;100.00;100398.03;5074522;28;20490;-53
2023/07/31 09:00:59;;;;;;;19.20;4.55;;;;;;;17.91;100.00;100399.44;5074570;28;20172;-59
2023/07/31 09:03:26;;;;;;;22.70;5.72;;;;;;;17.98;100.00;100424.66;5074187;28;20494;-58
2023/07/31 09:05:52;;;;;;;23.45;5.20;;;;;;;18.00;100.00;100420.09;5092074;28;20032;-55
2023/07/31 09:08:19;;;;;;;19.05;5.72;;;;;;;17.68;100.00;100357.56;5074275;28;20034;-65
2023/07/31 09:10:46;;;;;;;16.60;5.13;;;;;;;18.03;100.00;100425.22;5091563;28;20529;-59
2023/07/31 09:13:12;;;;;;;19.77;5.57;;;;;;;18.03;100.00;100419.03;5092286;28;20039;-57
2023/07/31 09:15:37;;;;;;;17.17;4.88;;;;;;;18.04;100.00;100415.41;5092336;28;20036;-56
2023/07/31 09:18:04;;;;;;;15.57;4.18;;;;;;;18.07;100.00;100421.34;5092095;28;20503;-54
2023/07/31 09:20:29;;;;;;;16.52;5.28;;;;;;;17.90;100.00;100374.59;5092267;28;20083;-56
2023/07/31 09:22:55;;;;;;;18.92;4.78;;;;;;;18.23;100.00;100414.00;5092128;28;20036;-59
2023/07/31 09:25:21;;;;;;;17.55;5.20;;;;;;;18.39;100.00;100406.63;5091428;28;20043;-59
2023/07/31 09:27:51;;;;;;;14.75;4.03;;;;;;;18.48;100.00;100410.44;5092099;28;20044;-59
2023/07/31 09:30:17;;;;;;;15.57;4.03;;;;;;;18.55;100.00;100411.75;5074025;28;20388;-57
2023/07/31 09:32:47;;;;;;;16.70;4.00;;;;;;;18.17;100.00;100321.19;5092169;28;20028;-57
2023/07/31 09:35:13;;;;;;;9.77;3.67;;;;;;;18.60;100.00;100398.94;5091914;28;20054;-57
2023/07/31 09:37:38;;;;;;;11.20;3.45;;;;;;;18.24;100.00;100333.09;5091596;28;20059;-61
2023/07/31 09:40:04;;;;;;;12.05;3.28;;;;;;;18.64;100.00;100400.41;5091348;28;20524;-59
2023/07/31 09:42:31;;;;;;;12.75;3.60;;;;;;;18.36;100.00;100342.03;5092042;28;20056;-58
2023/07/31 09:45:07;;;;;;;12.60;4.20;;;;;;;18.65;100.00;100395.94;5074168;28;20028;-58
2023/07/31 09:47:33;;;;;;;11.07;3.50;;;;;;;18.66;100.00;100400.28;5057072;28;20125;-57
2023/07/31 09:49:58;;;;;;;14.05;3.88;;;;;;;18.71;100.00;100391.00;5091746;28;20065;-55
2023/07/31 09:52:26;;;;;;;12.25;3.42;;;;;;;18.65;100.00;100385.28;5092139;28;20090;-53
2023/07/31 09:54:51;;;;;;;11.18;3.20;;;;;;;18.53;100.00;100393.19;5091911;28;20380;-58
2023/07/31 09:57:17;;;;;;;16.17;4.00;;;;;;;18.42;100.00;100390.41;5073028;28;20040;-57
2023/07/31 09:59:42;;;;;;;15.00;3.95;;;;;;;18.29;100.00;100367.44;5073837;28;20420;-57
2023/07/31 10:02:14;;;;;;;19.00;4.50;;;;;;;18.41;100.00;100385.22;5057132;28;20117;-59
2023/07/31 10:04:39;;;;;;;11.57;3.75;;;;;;;18.39;100.00;100393.28;5094761;28;20698;-59
2023/07/31 10:07:05;;;;;;;12.27;3.65;;;;;;;18.39;100.00;100389.78;5077350;28;20052;-59
2023/07/31 10:09:31;;;;;;;10.98;3.72;;;;;;;18.19;100.00;100369.03;5095742;28;20036;-57
2023/07/31 10:12:00;;;;;;;16.23;4.35;;;;;;;18.35;100.00;100393.63;5077498;28;20047;-59
2023/07/31 10:14:26;;;;;;;15.52;3.83;;;;;;;18.05;100.00;100324.75;5076780;28;20024;-57
2023/07/31 10:16:52;;;;;;;11.63;3.97;;;;;;;18.10;100.00;100332.38;5077153;28;20038;-56
2023/07/31 10:19:19;;;;;;;18.90;4.18;;;;;;;18.46;100.00;100375.91;5094921;28;20131;-56
2023/07/31 10:21:45;;;;;;;12.10;3.60;;;;;;;18.62;100.00;100396.16;5076353;28;20069;-59
2023/07/31 10:24:11;;;;;;;12.93;3.80;;;;;;;18.71;100.00;100399.00;5099307;28;20042;-58
2023/07/31 10:26:38;;;;;;;10.02;3.47;;;;;;;18.82;100.00;100400.91;5105934;28;20059;-57
2023/07/31 10:29:05;;;;;;;15.77;4.35;;;;;;;18.78;100.00;100392.25;5095202;28;20027;-58
2023/07/31 10:31:31;;;;;;;11.00;3.72;;;;;;;18.55;100.00;100339.78;5096378;28;20031;-58
2023/07/31 10:33:59;;;;;;;9.52;3.80;;;;;;;19.08;100.00;100403.34;5096476;28;20466;-58
2023/07/31 10:36:24;;;;;;;16.33;4.30;;;;;;;18.80;100.00;100333.47;5115196;28;20566;-57
2023/07/31 10:38:50;;;;;;;12.85;3.67;;;;;;;19.24;100.00;100395.03;5115579;28;20031;-59
2023/07/31 10:41:16;;;;;;;12.95;3.83;;;;;;;19.10;100.00;100356.06;5097052;28;20036;-57
2023/07/31 10:43:41;;;;;;;14.00;4.32;;;;;;;19.28;100.00;100380.50;5115287;28;20410;-58
2023/07/31 10:46:16;;;;;;;9.23;3.40;;;;;;;19.29;100.00;100394.69;5104597;28;20181;-58
2023/07/31 10:48:42;;;;;;;12.60;3.88;;;;;;;19.24;100.00;100387.03;5095049;28;20040;-56
2023/07/31 10:51:16;;;;;;;12.43;4.22;;;;;;;18.67;100.00;100320.22;5094603;28;20039;-54
2023/07/31 10:53:41;;;;;;;10.70;4.07;;;;;;;18.97;100.00;100389.94;5077787;28;20024;-55
2023/07/31 10:56:13;;;;;;;12.63;4.07;;;;;;;18.91;100.00;100395.72;5094725;28;20368;-58
2023/07/31 10:58:38;;;;;;;11.32;3.63;;;;;;;18.50;100.00;100337.44;5094599;28;20136;-54
2023/07/31 11:01:05;;;;;;;9.70;3.35;;;;;;;18.67;100.00;100384.22;5083762;28;20518;-57
2023/07/31 11:03:42;;;;;;;15.98;3.80;;;;;;;18.60;100.00;100396.25;5114732;28;20035;-57